Welkenraedt, Belgium
Current Conditions -  °F | °C
As of 5:25 PM on Friday 28 Nov 2014 (Local Time) from EBLB Reporting Station
Clear Clear  
Wind Chill: 40°   Ceiling: Unl
Heat Index: 43°   Visibility: 6mi
Dew Point: 37°   Wind: 5mph
Humidity: 81%   Direction: 50°NE
Pressure: 29.77"   Gusts: NA
Location:  50.66°N, 5.97°E
Report Text: EBLB 281625Z AUTO 05004KT 9999 NCD 06/03 Q1008 BLU
Loading
Personal Weather Stations






























Interactive Weather Map New forecast layout! Learn more

10-Day Weather Forecast

Advertisements
Track Severe Weather on mobile